Погода Софияна 2 недели

София, Болгария

19 июня-02 июля
  • 19июня
    Сегодня
    +18°
    +32°
    Ясно и безоблачно
    ВремяПогодаТемператураВлажностьДавлениеВетер, м/сВероятность осадков
    00:00Ясно и безоблачно+22°C71 %717 мм1.1 м/с2 %
    03:00Ясно и безоблачно+20°C74 %716 мм1.2 м/с2 %
    06:00Ясно и безоблачно+18°C73 %716 мм0.9 м/с2 %
    09:00Ясно и безоблачно+23°C66 %718 мм0.8 м/с2 %
    12:00Ясно и безоблачно+28°C48 %718 мм1.4 м/с1 %
    15:00Ясно и безоблачно+31°C36 %717 мм2.1 м/с2 %
    18:00Ясно и безоблачно+32°C33 %717 мм1.8 м/с2 %
    21:00Ясно и безоблачно+28°C50 %716 мм1.2 м/с2 %
  • 20июня
    Четверг
    +19°
    +34°
    Ясно и безоблачно
    ВремяПогодаТемператураВлажностьДавлениеВетер, м/сВероятность осадков
    00:00Ясно и безоблачно+23°C59 %716 мм1.3 м/с2 %
    03:00Ясно и безоблачно+20°C61 %716 мм1.3 м/с2 %
    06:00Ясно и безоблачно+18°C62 %716 мм0.8 м/с2 %
    09:00Ясно и безоблачно+23°C56 %717 мм0.6 м/с2 %
    12:00Ясно и безоблачно+29°C38 %717 мм1.6 м/с2 %
    15:00Ясно и безоблачно+32°C31 %717 мм2.4 м/с2 %
    18:00Ясно и безоблачно+33°C33 %717 мм2.6 м/с2 %
    21:00Практически безоблачно+29°C42 %716 мм1.4 м/с2 %
  • 21июня
    Пятница
    +18°
    +33°
    Практически безоблачно
    ВремяПогодаТемператураВлажностьДавлениеВетер, м/сВероятность осадков
    00:00Ясно и безоблачно+25°C53 %717 мм0.9 м/с2 %
    03:00Ясно и безоблачно+22°C64 %717 мм1.1 м/с2 %
    06:00Ясно и безоблачно+20°C67 %716 мм0.8 м/с2 %
    09:00Ясно и безоблачно+24°C58 %717 мм0.9 м/с2 %
    12:00Ясно и безоблачно+28°C43 %718 мм1.7 м/с2 %
    15:00Практически безоблачно+31°C37 %717 мм2.0 м/с9 %
    18:00Практически безоблачно+32°C43 %716 мм2.4 м/с9 %
    21:00Ясно и безоблачно+27°C61 %715 мм1.3 м/с2 %
  • 22июня
    Суббота
    +17°
    +34°
    Практически безоблачно
    ВремяПогодаТемператураВлажностьДавлениеВетер, м/сВероятность осадков
    00:00Ясно и безоблачно+24°C65 %715 мм1.2 м/с2 %
    03:00Ясно и безоблачно+21°C77 %714 мм1.5 м/с2 %
    06:00Ясно и безоблачно+18°C85 %713 мм0.9 м/с2 %
    09:00Ясно и безоблачно+23°C63 %714 мм1.1 м/с2 %
    12:00Ясно и безоблачно+29°C43 %714 мм1.7 м/с2 %
    15:00Практически безоблачно+32°C34 %713 мм2.1 м/с3 %
    18:00Небольшая облачность+33°C35 %712 мм2.0 м/с6 %
    21:00Облачно с прояснениями+28°C52 %712 мм1.5 м/с3 %
  • 23июня
    Воскресенье
    +16°
    +34°
    Небольшая облачность
    ВремяПогодаТемператураВлажностьДавлениеВетер, м/сВероятность осадков
    00:00Облачно с прояснениями+24°C54 %712 мм1.7 м/с2 %
    03:00Ясно и безоблачно+20°C51 %711 мм1.5 м/с2 %
    06:00Ясно и безоблачно+18°C55 %711 мм1.0 м/с2 %
    09:00Ясно и безоблачно+23°C43 %712 мм0.8 м/с2 %
    12:00Ясно и безоблачно+28°C36 %713 мм1.4 м/с2 %
    15:00Небольшая облачность+33°C29 %712 мм2.1 м/с7 %
    18:00Облачно с прояснениями+33°C29 %712 мм2.2 м/с10 %
    21:00Практически безоблачно+29°C45 %712 мм1.3 м/с4 %
Мы используем cookies
Соглашаюсь